If you wish to contribute or participate in the discussions about articles you are invited to join SKYbrary as a registered user

 Actions

Agartala Airport

From SKYbrary Wiki

VEAT
Airport
ICAO: VEAT
Summary
Name Agartala Airport
Region Asia and Pacific
Territory India IN.gif
Location Agartala, Tripura
Serving
Coordinates 23° 53' 33.6545", 91° 14' 38.2646"
Runways
Designator Length Width Surface ROPS
5/23 0 m0 ft 0 m0 ft UNK /
18/36 2286 m7,500 ft 45 m147.638 ft ASP yes/yes
METAR
Observation VEAT 131030Z 00000KT 2500 BR NSC 26/21 Q1012 BECMG 1500 BR
Station Agartala
Date/Time 13 December 2017 10:30:00
Wind direction
Wind speed 00 kts
Lowest cloud amount nil significant cloud
Temperature 26°C
Dew point 21°C
Humidity 74%
QNH 1012 hPa
Weather condition n/a

WX
Tag(s) Tropical Revolving Storm

Agartala Airport

ICAO: VEAT IATA: IXA

Description

Agartala Airport is a commercial airport located 1212 nm
22,224 m
22.224 km
72,913.386 ft
km northwest of the city of Agartala, the capital of the state of Tripura.

Climatology

Tropical Savanna climate (Köppen climate classification Aw) - monthly mean temperatures above 18°C291.15 K
64.4 °F
524.07 °R
, and a pronounced dry season. A Tropical Savanna climate has more pronounced dry seasons than a Tropical Monsoon climate.

Maps

Terrain

Loading map...

Airport Layout

Loading map...


Accidents & Serious Incidents at or in vicinity of VEAT

None on SKYbrary